sensor_id;sensor_type;location;lat;lon;timestamp;P1;durP1;ratioP1;P2;durP2;ratioP2
52180;SDS011;38158;53.338;6.514;2023-07-28T00:02:05;21.83;;;10.48;;
52180;SDS011;38158;53.338;6.514;2023-07-28T00:04:31;34.28;;;11.25;;
52180;SDS011;38158;53.338;6.514;2023-07-28T00:06:58;25.27;;;10.25;;
52180;SDS011;38158;53.338;6.514;2023-07-28T00:09:24;21.77;;;9.20;;
52180;SDS011;38158;53.338;6.514;2023-07-28T00:11:50;31.17;;;10.68;;
52180;SDS011;38158;53.338;6.514;2023-07-28T00:14:15;23.10;;;10.15;;
52180;SDS011;38158;53.338;6.514;2023-07-28T00:16:41;28.55;;;10.15;;
52180;SDS011;38158;53.338;6.514;2023-07-28T00:19:07;24.27;;;9.55;;
52180;SDS011;38158;53.338;6.514;2023-07-28T00:21:33;24.92;;;10.32;;
52180;SDS011;38158;53.338;6.514;2023-07-28T00:23:58;24.35;;;10.43;;
52180;SDS011;38158;53.338;6.514;2023-07-28T00:26:24;23.00;;;9.90;;
52180;SDS011;38158;53.338;6.514;2023-07-28T00:28:50;33.13;;;10.18;;
52180;SDS011;38158;53.338;6.514;2023-07-28T00:31:15;27.80;;;10.00;;
52180;SDS011;38158;53.338;6.514;2023-07-28T00:33:41;19.42;;;10.05;;
52180;SDS011;38158;53.338;6.514;2023-07-28T00:36:07;30.33;;;10.90;;
52180;SDS011;38158;53.338;6.514;2023-07-28T00:38:33;23.95;;;10.05;;
52180;SDS011;38158;53.338;6.514;2023-07-28T00:40:58;19.75;;;9.82;;
52180;SDS011;38158;53.338;6.514;2023-07-28T00:43:24;32.78;;;10.45;;
52180;SDS011;38158;53.338;6.514;2023-07-28T00:45:50;26.42;;;11.13;;
52180;SDS011;38158;53.338;6.514;2023-07-28T00:48:15;27.40;;;11.20;;
52180;SDS011;38158;53.338;6.514;2023-07-28T00:50:42;19.67;;;10.15;;
52180;SDS011;38158;53.338;6.514;2023-07-28T00:53:10;31.00;;;10.25;;
52180;SDS011;38158;53.338;6.514;2023-07-28T00:55:37;24.85;;;9.63;;
52180;SDS011;38158;53.338;6.514;2023-07-28T00:58:03;29.13;;;10.60;;
52180;SDS011;38158;53.338;6.514;2023-07-28T01:00:29;22.15;;;9.43;;
52180;SDS011;38158;53.338;6.514;2023-07-28T01:02:54;21.92;;;9.30;;
52180;SDS011;38158;53.338;6.514;2023-07-28T01:05:22;20.17;;;9.73;;
52180;SDS011;38158;53.338;6.514;2023-07-28T01:07:54;24.00;;;11.23;;
52180;SDS011;38158;53.338;6.514;2023-07-28T01:10:36;22.45;;;9.85;;
52180;SDS011;38158;53.338;6.514;2023-07-28T01:13:04;28.50;;;10.20;;
52180;SDS011;38158;53.338;6.514;2023-07-28T01:15:29;24.85;;;9.43;;
52180;SDS011;38158;53.338;6.514;2023-07-28T01:17:55;28.40;;;11.15;;
52180;SDS011;38158;53.338;6.514;2023-07-28T01:20:22;22.20;;;10.80;;
52180;SDS011;38158;53.338;6.514;2023-07-28T01:28:03;24.35;;;9.82;;
52180;SDS011;38158;53.338;6.514;2023-07-28T01:30:29;22.08;;;9.77;;
52180;SDS011;38158;53.338;6.514;2023-07-28T01:32:55;23.45;;;10.32;;
52180;SDS011;38158;53.338;6.514;2023-07-28T01:35:22;21.23;;;9.27;;
52180;SDS011;38158;53.338;6.514;2023-07-28T01:37:48;23.30;;;9.93;;
52180;SDS011;38158;53.338;6.514;2023-07-28T01:40:18;21.92;;;9.88;;
52180;SDS011;38158;53.338;6.514;2023-07-28T01:42:45;20.83;;;8.15;;
52180;SDS011;38158;53.338;6.514;2023-07-28T01:45:11;15.82;;;7.82;;
52180;SDS011;38158;53.338;6.514;2023-07-28T01:47:37;29.15;;;8.20;;
52180;SDS011;38158;53.338;6.514;2023-07-28T01:50:03;19.83;;;7.82;;
52180;SDS011;38158;53.338;6.514;2023-07-28T01:52:29;19.63;;;7.97;;
52180;SDS011;38158;53.338;6.514;2023-07-28T01:54:55;19.25;;;7.65;;
52180;SDS011;38158;53.338;6.514;2023-07-28T01:57:20;19.40;;;8.52;;
52180;SDS011;38158;53.338;6.514;2023-07-28T01:59:46;24.15;;;9.75;;
52180;SDS011;38158;53.338;6.514;2023-07-28T02:02:12;21.77;;;8.95;;
52180;SDS011;38158;53.338;6.514;2023-07-28T02:04:37;23.48;;;8.85;;
52180;SDS011;38158;53.338;6.514;2023-07-28T02:07:03;22.15;;;8.27;;
52180;SDS011;38158;53.338;6.514;2023-07-28T02:09:29;24.83;;;8.95;;
52180;SDS011;38158;53.338;6.514;2023-07-28T02:11:55;23.05;;;10.02;;
52180;SDS011;38158;53.338;6.514;2023-07-28T02:14:20;23.40;;;9.73;;
52180;SDS011;38158;53.338;6.514;2023-07-28T02:16:46;25.90;;;9.70;;
52180;SDS011;38158;53.338;6.514;2023-07-28T02:19:11;25.05;;;9.98;;
52180;SDS011;38158;53.338;6.514;2023-07-28T02:21:37;26.17;;;9.88;;
52180;SDS011;38158;53.338;6.514;2023-07-28T02:24:03;22.95;;;9.82;;
52180;SDS011;38158;53.338;6.514;2023-07-28T02:26:29;25.57;;;10.00;;
52180;SDS011;38158;53.338;6.514;2023-07-28T02:28:55;19.38;;;10.07;;
52180;SDS011;38158;53.338;6.514;2023-07-28T02:31:20;26.25;;;9.88;;
52180;SDS011;38158;53.338;6.514;2023-07-28T02:33:46;30.00;;;11.10;;
52180;SDS011;38158;53.338;6.514;2023-07-28T02:36:12;26.55;;;11.20;;
52180;SDS011;38158;53.338;6.514;2023-07-28T02:38:37;21.70;;;9.80;;
52180;SDS011;38158;53.338;6.514;2023-07-28T02:41:03;24.20;;;9.95;;
52180;SDS011;38158;53.338;6.514;2023-07-28T02:43:29;25.40;;;10.27;;
52180;SDS011;38158;53.338;6.514;2023-07-28T02:45:56;22.65;;;9.48;;
52180;SDS011;38158;53.338;6.514;2023-07-28T02:48:22;22.67;;;11.55;;
52180;SDS011;38158;53.338;6.514;2023-07-28T02:50:49;19.92;;;10.00;;
52180;SDS011;38158;53.338;6.514;2023-07-28T02:53:16;21.55;;;10.13;;
52180;SDS011;38158;53.338;6.514;2023-07-28T02:55:45;28.35;;;12.30;;
52180;SDS011;38158;53.338;6.514;2023-07-28T02:58:12;20.17;;;9.63;;
52180;SDS011;38158;53.338;6.514;2023-07-28T03:00:38;22.63;;;9.68;;
52180;SDS011;38158;53.338;6.514;2023-07-28T03:03:08;23.50;;;10.25;;
52180;SDS011;38158;53.338;6.514;2023-07-28T03:05:36;24.67;;;10.27;;
52180;SDS011;38158;53.338;6.514;2023-07-28T03:08:02;29.52;;;11.38;;
52180;SDS011;38158;53.338;6.514;2023-07-28T03:10:28;26.63;;;10.13;;
52180;SDS011;38158;53.338;6.514;2023-07-28T03:12:54;18.45;;;10.20;;
52180;SDS011;38158;53.338;6.514;2023-07-28T03:15:20;29.10;;;11.27;;
52180;SDS011;38158;53.338;6.514;2023-07-28T03:17:47;22.15;;;10.95;;
52180;SDS011;38158;53.338;6.514;2023-07-28T03:20:13;25.38;;;10.20;;
52180;SDS011;38158;53.338;6.514;2023-07-28T03:22:39;31.40;;;11.27;;
52180;SDS011;38158;53.338;6.514;2023-07-28T03:25:05;25.83;;;10.63;;
52180;SDS011;38158;53.338;6.514;2023-07-28T03:27:31;23.23;;;11.40;;
52180;SDS011;38158;53.338;6.514;2023-07-28T03:29:56;26.80;;;11.48;;
52180;SDS011;38158;53.338;6.514;2023-07-28T03:32:22;22.00;;;9.60;;
52180;SDS011;38158;53.338;6.514;2023-07-28T03:34:48;24.50;;;10.57;;
52180;SDS011;38158;53.338;6.514;2023-07-28T03:37:13;27.58;;;11.48;;
52180;SDS011;38158;53.338;6.514;2023-07-28T03:39:39;30.00;;;11.10;;
52180;SDS011;38158;53.338;6.514;2023-07-28T03:42:05;34.80;;;11.65;;
52180;SDS011;38158;53.338;6.514;2023-07-28T03:44:31;21.80;;;10.63;;
52180;SDS011;38158;53.338;6.514;2023-07-28T03:46:57;25.08;;;11.07;;
52180;SDS011;38158;53.338;6.514;2023-07-28T03:49:23;28.23;;;10.88;;
52180;SDS011;38158;53.338;6.514;2023-07-28T03:51:48;29.30;;;9.88;;
52180;SDS011;38158;53.338;6.514;2023-07-28T03:54:14;24.08;;;11.00;;
52180;SDS011;38158;53.338;6.514;2023-07-28T03:56:40;22.05;;;9.90;;
52180;SDS011;38158;53.338;6.514;2023-07-28T03:59:05;22.92;;;10.18;;
52180;SDS011;38158;53.338;6.514;2023-07-28T04:01:31;27.17;;;10.38;;
52180;SDS011;38158;53.338;6.514;2023-07-28T04:03:57;27.55;;;11.15;;
52180;SDS011;38158;53.338;6.514;2023-07-28T04:09:21;29.10;;;10.93;;
52180;SDS011;38158;53.338;6.514;2023-07-28T04:11:47;21.30;;;9.50;;
52180;SDS011;38158;53.338;6.514;2023-07-28T04:14:12;21.73;;;9.40;;
52180;SDS011;38158;53.338;6.514;2023-07-28T04:16:39;23.30;;;8.43;;
52180;SDS011;38158;53.338;6.514;2023-07-28T04:19:05;23.02;;;8.60;;
52180;SDS011;38158;53.338;6.514;2023-07-28T04:21:31;21.38;;;9.10;;
52180;SDS011;38158;53.338;6.514;2023-07-28T04:23:56;17.70;;;8.23;;
52180;SDS011;38158;53.338;6.514;2023-07-28T04:26:23;19.45;;;7.78;;
52180;SDS011;38158;53.338;6.514;2023-07-28T04:28:50;22.30;;;8.20;;
52180;SDS011;38158;53.338;6.514;2023-07-28T04:31:16;23.17;;;8.15;;
52180;SDS011;38158;53.338;6.514;2023-07-28T04:33:41;24.67;;;8.25;;
52180;SDS011;38158;53.338;6.514;2023-07-28T04:36:08;17.95;;;8.13;;
52180;SDS011;38158;53.338;6.514;2023-07-28T04:38:34;23.65;;;8.18;;
52180;SDS011;38158;53.338;6.514;2023-07-28T04:41:00;23.15;;;8.15;;
52180;SDS011;38158;53.338;6.514;2023-07-28T04:43:25;19.23;;;7.03;;
52180;SDS011;38158;53.338;6.514;2023-07-28T04:45:51;16.45;;;7.63;;
52180;SDS011;38158;53.338;6.514;2023-07-28T04:48:17;19.38;;;8.27;;
52180;SDS011;38158;53.338;6.514;2023-07-28T04:50:43;14.57;;;7.57;;
52180;SDS011;38158;53.338;6.514;2023-07-28T04:53:09;14.27;;;6.68;;
52180;SDS011;38158;53.338;6.514;2023-07-28T04:55:35;20.98;;;8.82;;
52180;SDS011;38158;53.338;6.514;2023-07-28T04:58:01;21.90;;;8.63;;
52180;SDS011;38158;53.338;6.514;2023-07-28T05:00:26;20.98;;;8.25;;
52180;SDS011;38158;53.338;6.514;2023-07-28T05:02:52;20.92;;;8.13;;
52180;SDS011;38158;53.338;6.514;2023-07-28T05:05:18;19.25;;;9.07;;
52180;SDS011;38158;53.338;6.514;2023-07-28T05:07:44;18.95;;;8.30;;
52180;SDS011;38158;53.338;6.514;2023-07-28T05:10:09;19.05;;;8.80;;
52180;SDS011;38158;53.338;6.514;2023-07-28T05:12:35;21.23;;;8.25;;
52180;SDS011;38158;53.338;6.514;2023-07-28T05:15:01;21.75;;;8.68;;
52180;SDS011;38158;53.338;6.514;2023-07-28T05:17:26;23.42;;;9.30;;
52180;SDS011;38158;53.338;6.514;2023-07-28T05:19:52;18.08;;;7.90;;
52180;SDS011;38158;53.338;6.514;2023-07-28T05:22:18;20.73;;;8.88;;
52180;SDS011;38158;53.338;6.514;2023-07-28T05:24:44;18.40;;;8.43;;
52180;SDS011;38158;53.338;6.514;2023-07-28T05:27:10;18.67;;;8.57;;
52180;SDS011;38158;53.338;6.514;2023-07-28T05:29:36;18.05;;;8.88;;
52180;SDS011;38158;53.338;6.514;2023-07-28T05:32:02;16.05;;;8.45;;
52180;SDS011;38158;53.338;6.514;2023-07-28T05:34:29;13.40;;;7.85;;
52180;SDS011;38158;53.338;6.514;2023-07-28T05:36:54;18.27;;;8.32;;
52180;SDS011;38158;53.338;6.514;2023-07-28T05:39:20;20.92;;;8.05;;
52180;SDS011;38158;53.338;6.514;2023-07-28T05:41:46;21.40;;;9.50;;
52180;SDS011;38158;53.338;6.514;2023-07-28T05:44:12;15.23;;;8.98;;
52180;SDS011;38158;53.338;6.514;2023-07-28T05:46:38;17.60;;;8.43;;
52180;SDS011;38158;53.338;6.514;2023-07-28T05:49:03;16.38;;;9.48;;
52180;SDS011;38158;53.338;6.514;2023-07-28T05:51:30;15.75;;;8.32;;
52180;SDS011;38158;53.338;6.514;2023-07-28T05:53:55;17.55;;;8.98;;
52180;SDS011;38158;53.338;6.514;2023-07-28T05:56:21;14.70;;;8.13;;
52180;SDS011;38158;53.338;6.514;2023-07-28T05:58:47;13.80;;;7.95;;
52180;SDS011;38158;53.338;6.514;2023-07-28T06:01:13;12.43;;;7.93;;
52180;SDS011;38158;53.338;6.514;2023-07-28T06:03:39;10.82;;;7.30;;
52180;SDS011;38158;53.338;6.514;2023-07-28T06:06:05;13.35;;;8.85;;
52180;SDS011;38158;53.338;6.514;2023-07-28T06:08:30;11.90;;;8.43;;
52180;SDS011;38158;53.338;6.514;2023-07-28T06:10:57;15.82;;;9.13;;
52180;SDS011;38158;53.338;6.514;2023-07-28T06:13:23;12.38;;;9.25;;
52180;SDS011;38158;53.338;6.514;2023-07-28T06:15:48;11.48;;;7.00;;
52180;SDS011;38158;53.338;6.514;2023-07-28T06:18:14;11.50;;;9.23;;
52180;SDS011;38158;53.338;6.514;2023-07-28T06:20:42;10.68;;;8.30;;
52180;SDS011;38158;53.338;6.514;2023-07-28T06:23:08;11.85;;;8.65;;
52180;SDS011;38158;53.338;6.514;2023-07-28T06:25:34;12.63;;;8.57;;
52180;SDS011;38158;53.338;6.514;2023-07-28T06:28:00;11.05;;;8.55;;
52180;SDS011;38158;53.338;6.514;2023-07-28T06:30:25;15.52;;;10.10;;
52180;SDS011;38158;53.338;6.514;2023-07-28T06:32:51;9.18;;;7.00;;
52180;SDS011;38158;53.338;6.514;2023-07-28T06:35:17;13.55;;;8.82;;
52180;SDS011;38158;53.338;6.514;2023-07-28T06:37:42;11.93;;;8.82;;
52180;SDS011;38158;53.338;6.514;2023-07-28T06:40:08;13.43;;;9.43;;
52180;SDS011;38158;53.338;6.514;2023-07-28T06:42:35;16.23;;;11.57;;
52180;SDS011;38158;53.338;6.514;2023-07-28T06:45:02;15.10;;;10.68;;
52180;SDS011;38158;53.338;6.514;2023-07-28T06:49:54;11.85;;;8.60;;
52180;SDS011;38158;53.338;6.514;2023-07-28T06:52:20;16.23;;;10.25;;
52180;SDS011;38158;53.338;6.514;2023-07-28T06:54:46;13.68;;;9.57;;
52180;SDS011;38158;53.338;6.514;2023-07-28T06:57:14;11.88;;;8.27;;
52180;SDS011;38158;53.338;6.514;2023-07-28T06:59:40;11.30;;;9.15;;
52180;SDS011;38158;53.338;6.514;2023-07-28T07:02:06;13.32;;;9.05;;
52180;SDS011;38158;53.338;6.514;2023-07-28T07:04:32;14.63;;;8.10;;
52180;SDS011;38158;53.338;6.514;2023-07-28T07:06:58;12.68;;;7.70;;
52180;SDS011;38158;53.338;6.514;2023-07-28T07:09:23;9.05;;;6.38;;
52180;SDS011;38158;53.338;6.514;2023-07-28T07:11:49;9.27;;;6.72;;
52180;SDS011;38158;53.338;6.514;2023-07-28T07:14:16;9.68;;;7.13;;
52180;SDS011;38158;53.338;6.514;2023-07-28T07:16:41;8.95;;;6.45;;
52180;SDS011;38158;53.338;6.514;2023-07-28T07:19:07;7.40;;;5.80;;
52180;SDS011;38158;53.338;6.514;2023-07-28T07:21:34;8.90;;;6.50;;
52180;SDS011;38158;53.338;6.514;2023-07-28T07:24:00;7.97;;;6.30;;
52180;SDS011;38158;53.338;6.514;2023-07-28T07:26:27;8.88;;;6.57;;
52180;SDS011;38158;53.338;6.514;2023-07-28T07:28:53;12.45;;;7.18;;
52180;SDS011;38158;53.338;6.514;2023-07-28T07:31:19;8.68;;;6.30;;
52180;SDS011;38158;53.338;6.514;2023-07-28T07:33:45;10.35;;;6.72;;
52180;SDS011;38158;53.338;6.514;2023-07-28T07:36:12;7.57;;;5.65;;
52180;SDS011;38158;53.338;6.514;2023-07-28T07:38:38;9.45;;;6.35;;
52180;SDS011;38158;53.338;6.514;2023-07-28T07:41:06;7.80;;;5.55;;
52180;SDS011;38158;53.338;6.514;2023-07-28T07:43:32;7.73;;;5.53;;
52180;SDS011;38158;53.338;6.514;2023-07-28T07:45:57;8.10;;;5.38;;
52180;SDS011;38158;53.338;6.514;2023-07-28T07:48:23;7.45;;;5.00;;
52180;SDS011;38158;53.338;6.514;2023-07-28T07:50:49;11.15;;;5.88;;
52180;SDS011;38158;53.338;6.514;2023-07-28T07:53:14;7.15;;;5.40;;
52180;SDS011;38158;53.338;6.514;2023-07-28T07:55:40;7.57;;;5.70;;
52180;SDS011;38158;53.338;6.514;2023-07-28T07:58:06;7.57;;;5.55;;
52180;SDS011;38158;53.338;6.514;2023-07-28T08:00:32;6.75;;;5.20;;
52180;SDS011;38158;53.338;6.514;2023-07-28T08:02:59;6.65;;;5.05;;
52180;SDS011;38158;53.338;6.514;2023-07-28T08:05:24;7.18;;;5.50;;
52180;SDS011;38158;53.338;6.514;2023-07-28T08:07:50;7.10;;;5.00;;
52180;SDS011;38158;53.338;6.514;2023-07-28T08:10:16;7.25;;;5.03;;
52180;SDS011;38158;53.338;6.514;2023-07-28T08:12:42;7.40;;;5.57;;
52180;SDS011;38158;53.338;6.514;2023-07-28T08:15:10;7.90;;;6.25;;
52180;SDS011;38158;53.338;6.514;2023-07-28T08:17:35;8.73;;;5.55;;
52180;SDS011;38158;53.338;6.514;2023-07-28T08:20:02;8.73;;;5.80;;
52180;SDS011;38158;53.338;6.514;2023-07-28T08:22:28;6.90;;;4.90;;
52180;SDS011;38158;53.338;6.514;2023-07-28T08:24:54;7.72;;;5.60;;
52180;SDS011;38158;53.338;6.514;2023-07-28T08:27:20;8.80;;;6.20;;
52180;SDS011;38158;53.338;6.514;2023-07-28T08:29:45;7.38;;;5.63;;
52180;SDS011;38158;53.338;6.514;2023-07-28T08:32:11;8.45;;;6.38;;
52180;SDS011;38158;53.338;6.514;2023-07-28T08:34:37;6.40;;;4.80;;
52180;SDS011;38158;53.338;6.514;2023-07-28T08:37:03;7.82;;;5.13;;
52180;SDS011;38158;53.338;6.514;2023-07-28T08:39:28;8.45;;;5.10;;
52180;SDS011;38158;53.338;6.514;2023-07-28T08:41:58;5.90;;;4.10;;
52180;SDS011;38158;53.338;6.514;2023-07-28T08:44:25;4.78;;;3.42;;
52180;SDS011;38158;53.338;6.514;2023-07-28T08:46:51;10.95;;;4.32;;
52180;SDS011;38158;53.338;6.514;2023-07-28T08:49:17;5.70;;;3.97;;
52180;SDS011;38158;53.338;6.514;2023-07-28T08:51:48;6.97;;;4.40;;
52180;SDS011;38158;53.338;6.514;2023-07-28T08:54:15;6.72;;;4.80;;
52180;SDS011;38158;53.338;6.514;2023-07-28T08:56:42;6.22;;;4.53;;
52180;SDS011;38158;53.338;6.514;2023-07-28T08:59:09;18.40;;;7.32;;
52180;SDS011;38158;53.338;6.514;2023-07-28T09:01:41;8.75;;;4.82;;
52180;SDS011;38158;53.338;6.514;2023-07-28T09:04:11;7.93;;;5.68;;
52180;SDS011;38158;53.338;6.514;2023-07-28T09:06:37;7.55;;;4.88;;
52180;SDS011;38158;53.338;6.514;2023-07-28T09:09:06;7.30;;;5.35;;
52180;SDS011;38158;53.338;6.514;2023-07-28T09:11:33;6.75;;;5.07;;
52180;SDS011;38158;53.338;6.514;2023-07-28T09:14:10;7.82;;;5.25;;
52180;SDS011;38158;53.338;6.514;2023-07-28T09:16:41;9.18;;;4.72;;
52180;SDS011;38158;53.338;6.514;2023-07-28T09:19:08;7.05;;;5.43;;
52180;SDS011;38158;53.338;6.514;2023-07-28T09:24:00;7.18;;;5.05;;
52180;SDS011;38158;53.338;6.514;2023-07-28T09:26:46;7.40;;;5.05;;
52180;SDS011;38158;53.338;6.514;2023-07-28T09:29:14;7.20;;;4.80;;
52180;SDS011;38158;53.338;6.514;2023-07-28T09:31:49;6.65;;;4.22;;
52180;SDS011;38158;53.338;6.514;2023-07-28T09:34:28;5.20;;;3.60;;
52180;SDS011;38158;53.338;6.514;2023-07-28T09:36:54;4.65;;;3.30;;
52180;SDS011;38158;53.338;6.514;2023-07-28T09:39:20;6.15;;;4.15;;
52180;SDS011;38158;53.338;6.514;2023-07-28T09:41:47;4.82;;;3.33;;
52180;SDS011;38158;53.338;6.514;2023-07-28T09:44:13;7.20;;;4.10;;
52180;SDS011;38158;53.338;6.514;2023-07-28T09:47:00;7.88;;;5.22;;
52180;SDS011;38158;53.338;6.514;2023-07-28T09:52:05;6.15;;;4.38;;
52180;SDS011;38158;53.338;6.514;2023-07-28T09:54:36;10.45;;;5.28;;
52180;SDS011;38158;53.338;6.514;2023-07-28T09:57:04;7.97;;;5.78;;
52180;SDS011;38158;53.338;6.514;2023-07-28T09:59:38;8.93;;;5.88;;
52180;SDS011;38158;53.338;6.514;2023-07-28T10:02:07;8.77;;;5.70;;
52180;SDS011;38158;53.338;6.514;2023-07-28T10:04:34;7.47;;;5.40;;
52180;SDS011;38158;53.338;6.514;2023-07-28T10:07:00;6.00;;;4.57;;
52180;SDS011;38158;53.338;6.514;2023-07-28T10:09:29;7.40;;;4.65;;
52180;SDS011;38158;53.338;6.514;2023-07-28T10:11:58;6.63;;;4.75;;
52180;SDS011;38158;53.338;6.514;2023-07-28T10:14:35;5.72;;;4.22;;
52180;SDS011;38158;53.338;6.514;2023-07-28T10:17:05;6.80;;;4.80;;
52180;SDS011;38158;53.338;6.514;2023-07-28T10:19:34;5.45;;;4.18;;
52180;SDS011;38158;53.338;6.514;2023-07-28T10:22:01;5.53;;;3.13;;
52180;SDS011;38158;53.338;6.514;2023-07-28T10:27:34;4.25;;;3.15;;
52180;SDS011;38158;53.338;6.514;2023-07-28T10:30:02;8.02;;;3.47;;
52180;SDS011;38158;53.338;6.514;2023-07-28T10:32:36;4.30;;;3.08;;
52180;SDS011;38158;53.338;6.514;2023-07-28T10:35:07;5.47;;;3.40;;
52180;SDS011;38158;53.338;6.514;2023-07-28T10:37:37;6.50;;;4.00;;
52180;SDS011;38158;53.338;6.514;2023-07-28T10:42:53;6.95;;;4.18;;
52180;SDS011;38158;53.338;6.514;2023-07-28T10:45:20;4.10;;;3.22;;
52180;SDS011;38158;53.338;6.514;2023-07-28T10:47:48;4.18;;;2.67;;
52180;SDS011;38158;53.338;6.514;2023-07-28T10:50:14;6.87;;;2.77;;
52180;SDS011;38158;53.338;6.514;2023-07-28T10:52:44;4.32;;;2.70;;
52180;SDS011;38158;53.338;6.514;2023-07-28T10:55:14;5.03;;;3.13;;
52180;SDS011;38158;53.338;6.514;2023-07-28T10:57:45;4.18;;;2.80;;
52180;SDS011;38158;53.338;6.514;2023-07-28T11:00:13;4.80;;;2.58;;
52180;SDS011;38158;53.338;6.514;2023-07-28T11:05:28;5.05;;;3.35;;
52180;SDS011;38158;53.338;6.514;2023-07-28T11:07:55;6.00;;;3.50;;
52180;SDS011;38158;53.338;6.514;2023-07-28T11:10:22;6.75;;;3.13;;
52180;SDS011;38158;53.338;6.514;2023-07-28T11:12:49;5.95;;;3.50;;
52180;SDS011;38158;53.338;6.514;2023-07-28T11:15:17;4.85;;;3.17;;
52180;SDS011;38158;53.338;6.514;2023-07-28T11:17:47;4.70;;;3.55;;
52180;SDS011;38158;53.338;6.514;2023-07-28T11:20:18;4.93;;;3.50;;
52180;SDS011;38158;53.338;6.514;2023-07-28T11:22:54;5.75;;;3.25;;
52180;SDS011;38158;53.338;6.514;2023-07-28T11:25:21;4.30;;;2.78;;
52180;SDS011;38158;53.338;6.514;2023-07-28T11:27:48;4.82;;;3.03;;
52180;SDS011;38158;53.338;6.514;2023-07-28T11:30:16;6.38;;;2.83;;
52180;SDS011;38158;53.338;6.514;2023-07-28T11:32:43;4.53;;;3.00;;
52180;SDS011;38158;53.338;6.514;2023-07-28T11:35:11;4.97;;;2.60;;
52180;SDS011;38158;53.338;6.514;2023-07-28T11:37:38;3.90;;;2.75;;
52180;SDS011;38158;53.338;6.514;2023-07-28T11:42:39;3.83;;;2.40;;
52180;SDS011;38158;53.338;6.514;2023-07-28T11:45:06;3.33;;;1.88;;
52180;SDS011;38158;53.338;6.514;2023-07-28T11:47:33;4.82;;;2.30;;
52180;SDS011;38158;53.338;6.514;2023-07-28T11:49:59;2.77;;;1.87;;
52180;SDS011;38158;53.338;6.514;2023-07-28T11:55:01;2.38;;;1.80;;
52180;SDS011;38158;53.338;6.514;2023-07-28T11:57:29;2.83;;;1.55;;
52180;SDS011;38158;53.338;6.514;2023-07-28T12:00:01;3.38;;;1.30;;
52180;SDS011;38158;53.338;6.514;2023-07-28T12:02:30;2.60;;;1.30;;
52180;SDS011;38158;53.338;6.514;2023-07-28T12:04:58;2.92;;;1.45;;
52180;SDS011;38158;53.338;6.514;2023-07-28T12:07:31;2.70;;;1.65;;
52180;SDS011;38158;53.338;6.514;2023-07-28T12:09:57;3.50;;;1.50;;
52180;SDS011;38158;53.338;6.514;2023-07-28T12:12:40;3.38;;;1.58;;
52180;SDS011;38158;53.338;6.514;2023-07-28T12:15:26;4.13;;;1.55;;
52180;SDS011;38158;53.338;6.514;2023-07-28T12:18:10;3.22;;;1.30;;
52180;SDS011;38158;53.338;6.514;2023-07-28T12:20:46;2.08;;;1.35;;
52180;SDS011;38158;53.338;6.514;2023-07-28T12:23:21;1.67;;;1.10;;
52180;SDS011;38158;53.338;6.514;2023-07-28T12:25:48;2.83;;;1.23;;
52180;SDS011;38158;53.338;6.514;2023-07-28T12:28:15;2.90;;;1.20;;
52180;SDS011;38158;53.338;6.514;2023-07-28T12:30:41;2.10;;;1.05;;
52180;SDS011;38158;53.338;6.514;2023-07-28T12:35:34;2.10;;;1.20;;
52180;SDS011;38158;53.338;6.514;2023-07-28T12:38:00;1.80;;;1.23;;
52180;SDS011;38158;53.338;6.514;2023-07-28T12:40:27;2.00;;;1.02;;
52180;SDS011;38158;53.338;6.514;2023-07-28T12:42:54;2.20;;;1.17;;
52180;SDS011;38158;53.338;6.514;2023-07-28T12:45:20;2.63;;;1.27;;
52180;SDS011;38158;53.338;6.514;2023-07-28T12:47:46;4.03;;;1.30;;
52180;SDS011;38158;53.338;6.514;2023-07-28T12:50:12;2.67;;;1.70;;
52180;SDS011;38158;53.338;6.514;2023-07-28T12:52:38;2.37;;;1.20;;
52180;SDS011;38158;53.338;6.514;2023-07-28T12:55:03;3.00;;;1.30;;
52180;SDS011;38158;53.338;6.514;2023-07-28T12:57:30;2.85;;;1.17;;
52180;SDS011;38158;53.338;6.514;2023-07-28T13:02:22;1.88;;;1.08;;
52180;SDS011;38158;53.338;6.514;2023-07-28T13:04:48;1.53;;;1.20;;
52180;SDS011;38158;53.338;6.514;2023-07-28T13:07:14;1.63;;;1.10;;
52180;SDS011;38158;53.338;6.514;2023-07-28T13:09:39;3.03;;;1.50;;
52180;SDS011;38158;53.338;6.514;2023-07-28T13:12:07;2.10;;;1.20;;
52180;SDS011;38158;53.338;6.514;2023-07-28T13:14:33;3.70;;;1.03;;
52180;SDS011;38158;53.338;6.514;2023-07-28T13:16:59;2.70;;;1.10;;
52180;SDS011;38158;53.338;6.514;2023-07-28T13:19:24;2.30;;;1.40;;
52180;SDS011;38158;53.338;6.514;2023-07-28T13:21:50;2.73;;;1.20;;
52180;SDS011;38158;53.338;6.514;2023-07-28T13:24:16;2.43;;;1.30;;
52180;SDS011;38158;53.338;6.514;2023-07-28T13:26:42;2.87;;;1.40;;
52180;SDS011;38158;53.338;6.514;2023-07-28T13:29:07;2.43;;;1.53;;
52180;SDS011;38158;53.338;6.514;2023-07-28T13:31:33;15.23;;;12.87;;
52180;SDS011;38158;53.338;6.514;2023-07-28T13:33:59;8.47;;;5.50;;
52180;SDS011;38158;53.338;6.514;2023-07-28T13:36:24;5.87;;;2.83;;
52180;SDS011;38158;53.338;6.514;2023-07-28T13:38:50;3.80;;;1.60;;
52180;SDS011;38158;53.338;6.514;2023-07-28T13:41:16;2.00;;;1.40;;
52180;SDS011;38158;53.338;6.514;2023-07-28T13:43:41;4.00;;;1.40;;
52180;SDS011;38158;53.338;6.514;2023-07-28T13:46:07;2.50;;;1.10;;
52180;SDS011;38158;53.338;6.514;2023-07-28T13:48:33;2.43;;;1.37;;
52180;SDS011;38158;53.338;6.514;2023-07-28T13:51:01;3.50;;;1.85;;
52180;SDS011;38158;53.338;6.514;2023-07-28T13:53:27;2.65;;;1.42;;
52180;SDS011;38158;53.338;6.514;2023-07-28T13:55:53;2.55;;;1.50;;
52180;SDS011;38158;53.338;6.514;2023-07-28T13:58:20;2.75;;;1.50;;
52180;SDS011;38158;53.338;6.514;2023-07-28T14:00:45;2.17;;;1.37;;
52180;SDS011;38158;53.338;6.514;2023-07-28T14:03:11;1.83;;;1.02;;
52180;SDS011;38158;53.338;6.514;2023-07-28T14:05:38;1.53;;;0.90;;
52180;SDS011;38158;53.338;6.514;2023-07-28T14:08:03;2.63;;;1.10;;
52180;SDS011;38158;53.338;6.514;2023-07-28T14:10:29;2.27;;;1.10;;
52180;SDS011;38158;53.338;6.514;2023-07-28T14:12:57;8.15;;;1.58;;
52180;SDS011;38158;53.338;6.514;2023-07-28T14:15:23;2.80;;;1.57;;
52180;SDS011;38158;53.338;6.514;2023-07-28T14:17:48;2.77;;;1.10;;
52180;SDS011;38158;53.338;6.514;2023-07-28T14:20:14;2.20;;;0.80;;
52180;SDS011;38158;53.338;6.514;2023-07-28T14:22:40;3.83;;;1.57;;
52180;SDS011;38158;53.338;6.514;2023-07-28T14:25:06;5.27;;;1.30;;
52180;SDS011;38158;53.338;6.514;2023-07-28T14:27:32;1.70;;;0.73;;
52180;SDS011;38158;53.338;6.514;2023-07-28T14:29:57;2.97;;;0.93;;
52180;SDS011;38158;53.338;6.514;2023-07-28T14:32:23;2.27;;;0.97;;
52180;SDS011;38158;53.338;6.514;2023-07-28T14:34:49;2.17;;;0.80;;
52180;SDS011;38158;53.338;6.514;2023-07-28T14:37:14;1.40;;;0.63;;
52180;SDS011;38158;53.338;6.514;2023-07-28T14:39:40;1.03;;;0.73;;
52180;SDS011;38158;53.338;6.514;2023-07-28T14:42:06;1.53;;;0.93;;
52180;SDS011;38158;53.338;6.514;2023-07-28T14:44:32;2.53;;;1.10;;
52180;SDS011;38158;53.338;6.514;2023-07-28T14:46:57;1.70;;;0.90;;
52180;SDS011;38158;53.338;6.514;2023-07-28T14:49:23;2.13;;;0.87;;
52180;SDS011;38158;53.338;6.514;2023-07-28T14:51:52;1.85;;;0.90;;
52180;SDS011;38158;53.338;6.514;2023-07-28T14:54:21;2.80;;;1.10;;
52180;SDS011;38158;53.338;6.514;2023-07-28T14:56:46;2.17;;;0.83;;
52180;SDS011;38158;53.338;6.514;2023-07-28T14:59:12;2.97;;;1.17;;
52180;SDS011;38158;53.338;6.514;2023-07-28T15:01:38;3.50;;;1.40;;
52180;SDS011;38158;53.338;6.514;2023-07-28T15:04:03;2.10;;;1.10;;
52180;SDS011;38158;53.338;6.514;2023-07-28T15:06:29;3.77;;;1.30;;
52180;SDS011;38158;53.338;6.514;2023-07-28T15:11:22;1.83;;;0.95;;
52180;SDS011;38158;53.338;6.514;2023-07-28T15:13:49;2.40;;;0.80;;